sensor_id;sensor_type;location;lat;lon;timestamp;temperature;humidity
7000;DHT22;3540;53.242;10.408;2022-07-29T00:00:42;13.70;99.90
7000;DHT22;3540;53.242;10.408;2022-07-29T00:03:10;13.70;99.90
7000;DHT22;3540;53.242;10.408;2022-07-29T00:05:38;13.70;99.90
7000;DHT22;3540;53.242;10.408;2022-07-29T00:08:04;13.70;99.90
7000;DHT22;3540;53.242;10.408;2022-07-29T00:10:30;13.60;99.90
7000;DHT22;3540;53.242;10.408;2022-07-29T00:12:56;13.60;99.90
7000;DHT22;3540;53.242;10.408;2022-07-29T00:15:21;13.60;99.90
7000;DHT22;3540;53.242;10.408;2022-07-29T00:17:47;13.50;99.90
7000;DHT22;3540;53.242;10.408;2022-07-29T00:20:12;13.50;99.90
7000;DHT22;3540;53.242;10.408;2022-07-29T00:22:39;13.50;99.90
7000;DHT22;3540;53.242;10.408;2022-07-29T00:25:05;13.40;99.90
7000;DHT22;3540;53.242;10.408;2022-07-29T00:27:30;13.40;99.90
7000;DHT22;3540;53.242;10.408;2022-07-29T00:29:56;13.40;99.90
7000;DHT22;3540;53.242;10.408;2022-07-29T00:32:21;13.30;99.90
7000;DHT22;3540;53.242;10.408;2022-07-29T00:34:47;13.30;99.90
7000;DHT22;3540;53.242;10.408;2022-07-29T00:37:31;13.30;99.90
7000;DHT22;3540;53.242;10.408;2022-07-29T00:39:57;13.30;99.90
7000;DHT22;3540;53.242;10.408;2022-07-29T00:42:22;13.30;99.90
7000;DHT22;3540;53.242;10.408;2022-07-29T00:44:48;13.30;99.90
7000;DHT22;3540;53.242;10.408;2022-07-29T00:47:14;13.30;99.90
7000;DHT22;3540;53.242;10.408;2022-07-29T00:49:41;13.20;99.90
7000;DHT22;3540;53.242;10.408;2022-07-29T00:52:08;13.20;99.90
7000;DHT22;3540;53.242;10.408;2022-07-29T00:54:34;13.20;99.90
7000;DHT22;3540;53.242;10.408;2022-07-29T00:57:00;13.20;99.90
7000;DHT22;3540;53.242;10.408;2022-07-29T00:59:27;13.30;99.90
7000;DHT22;3540;53.242;10.408;2022-07-29T01:01:53;13.30;99.90
7000;DHT22;3540;53.242;10.408;2022-07-29T01:04:20;13.30;99.90
7000;DHT22;3540;53.242;10.408;2022-07-29T01:06:47;13.30;99.90
7000;DHT22;3540;53.242;10.408;2022-07-29T01:09:14;13.30;99.90
7000;DHT22;3540;53.242;10.408;2022-07-29T01:11:42;13.20;99.90
7000;DHT22;3540;53.242;10.408;2022-07-29T01:14:09;13.20;99.90
7000;DHT22;3540;53.242;10.408;2022-07-29T01:16:45;13.20;99.90
7000;DHT22;3540;53.242;10.408;2022-07-29T01:22:19;13.10;99.90
7000;DHT22;3540;53.242;10.408;2022-07-29T01:30:58;13.10;99.90
7000;DHT22;3540;53.242;10.408;2022-07-29T01:33:27;13.10;99.90
7000;DHT22;3540;53.242;10.408;2022-07-29T01:36:14;13.10;99.90
7000;DHT22;3540;53.242;10.408;2022-07-29T01:38:44;13.20;99.90
7000;DHT22;3540;53.242;10.408;2022-07-29T01:41:15;13.20;99.90
7000;DHT22;3540;53.242;10.408;2022-07-29T01:43:51;13.10;99.90
7000;DHT22;3540;53.242;10.408;2022-07-29T01:46:29;13.10;99.90
7000;DHT22;3540;53.242;10.408;2022-07-29T01:49:12;13.10;99.90
7000;DHT22;3540;53.242;10.408;2022-07-29T01:52:14;13.10;99.90
7000;DHT22;3540;53.242;10.408;2022-07-29T01:54:44;13.10;99.90
7000;DHT22;3540;53.242;10.408;2022-07-29T01:57:15;13.10;99.90
7000;DHT22;3540;53.242;10.408;2022-07-29T01:59:43;13.10;99.90
7000;DHT22;3540;53.242;10.408;2022-07-29T02:02:11;13.10;99.90
7000;DHT22;3540;53.242;10.408;2022-07-29T02:04:40;13.10;99.90
7000;DHT22;3540;53.242;10.408;2022-07-29T02:07:07;13.10;99.90
7000;DHT22;3540;53.242;10.408;2022-07-29T02:09:36;13.10;99.90
7000;DHT22;3540;53.242;10.408;2022-07-29T02:12:04;13.10;99.90
7000;DHT22;3540;53.242;10.408;2022-07-29T02:14:35;13.10;99.90
7000;DHT22;3540;53.242;10.408;2022-07-29T02:17:02;13.10;99.90
7000;DHT22;3540;53.242;10.408;2022-07-29T02:19:29;13.10;99.90
7000;DHT22;3540;53.242;10.408;2022-07-29T02:21:58;13.10;99.90
7000;DHT22;3540;53.242;10.408;2022-07-29T02:24:25;13.10;99.90
7000;DHT22;3540;53.242;10.408;2022-07-29T02:26:53;13.10;99.90
7000;DHT22;3540;53.242;10.408;2022-07-29T02:29:22;13.10;99.90
7000;DHT22;3540;53.242;10.408;2022-07-29T02:31:49;13.10;99.90
7000;DHT22;3540;53.242;10.408;2022-07-29T02:34:17;13.20;99.90
7000;DHT22;3540;53.242;10.408;2022-07-29T02:36:43;13.20;99.90
7000;DHT22;3540;53.242;10.408;2022-07-29T02:39:11;13.10;99.90
7000;DHT22;3540;53.242;10.408;2022-07-29T02:44:19;13.20;99.90
7000;DHT22;3540;53.242;10.408;2022-07-29T02:49:38;13.20;99.90
7000;DHT22;3540;53.242;10.408;2022-07-29T02:52:18;13.20;99.90
7000;DHT22;3540;53.242;10.408;2022-07-29T02:57:22;13.20;99.90
7000;DHT22;3540;53.242;10.408;2022-07-29T02:59:57;13.20;99.90
7000;DHT22;3540;53.242;10.408;2022-07-29T03:02:25;13.20;99.90
7000;DHT22;3540;53.242;10.408;2022-07-29T03:04:53;13.20;99.90
7000;DHT22;3540;53.242;10.408;2022-07-29T03:07:20;13.20;99.90
7000;DHT22;3540;53.242;10.408;2022-07-29T03:09:46;13.20;99.90
7000;DHT22;3540;53.242;10.408;2022-07-29T03:12:13;13.20;99.90
7000;DHT22;3540;53.242;10.408;2022-07-29T03:14:39;13.20;99.90
7000;DHT22;3540;53.242;10.408;2022-07-29T03:17:05;13.20;99.90
7000;DHT22;3540;53.242;10.408;2022-07-29T03:19:31;13.20;99.90
7000;DHT22;3540;53.242;10.408;2022-07-29T03:21:58;13.20;99.90
7000;DHT22;3540;53.242;10.408;2022-07-29T03:24:35;13.20;99.90
7000;DHT22;3540;53.242;10.408;2022-07-29T03:27:02;13.10;99.90
7000;DHT22;3540;53.242;10.408;2022-07-29T03:29:29;13.10;99.90
7000;DHT22;3540;53.242;10.408;2022-07-29T03:31:55;13.20;99.90
7000;DHT22;3540;53.242;10.408;2022-07-29T03:34:22;13.10;99.90
7000;DHT22;3540;53.242;10.408;2022-07-29T03:36:48;13.20;99.90
7000;DHT22;3540;53.242;10.408;2022-07-29T03:39:21;13.10;99.90
7000;DHT22;3540;53.242;10.408;2022-07-29T03:41:49;13.10;99.90
7000;DHT22;3540;53.242;10.408;2022-07-29T03:44:17;13.10;99.90
7000;DHT22;3540;53.242;10.408;2022-07-29T03:46:44;13.10;99.90
7000;DHT22;3540;53.242;10.408;2022-07-29T03:49:11;13.10;99.90
7000;DHT22;3540;53.242;10.408;2022-07-29T03:51:39;13.10;99.90
7000;DHT22;3540;53.242;10.408;2022-07-29T03:54:05;13.10;99.90
7000;DHT22;3540;53.242;10.408;2022-07-29T03:56:35;13.10;99.90
7000;DHT22;3540;53.242;10.408;2022-07-29T03:59:02;13.10;99.90
7000;DHT22;3540;53.242;10.408;2022-07-29T04:01:29;13.00;99.90
7000;DHT22;3540;53.242;10.408;2022-07-29T04:03:57;13.10;99.90
7000;DHT22;3540;53.242;10.408;2022-07-29T04:06:23;13.10;99.90
7000;DHT22;3540;53.242;10.408;2022-07-29T04:08:51;13.00;99.90
7000;DHT22;3540;53.242;10.408;2022-07-29T04:11:16;13.00;99.90
7000;DHT22;3540;53.242;10.408;2022-07-29T04:13:42;13.10;99.90
7000;DHT22;3540;53.242;10.408;2022-07-29T04:16:08;13.10;99.90
7000;DHT22;3540;53.242;10.408;2022-07-29T04:18:33;13.10;99.90
7000;DHT22;3540;53.242;10.408;2022-07-29T04:20:59;13.20;99.90
7000;DHT22;3540;53.242;10.408;2022-07-29T04:23:26;13.10;99.90
7000;DHT22;3540;53.242;10.408;2022-07-29T04:25:52;13.20;99.90
7000;DHT22;3540;53.242;10.408;2022-07-29T04:28:18;13.20;99.90
7000;DHT22;3540;53.242;10.408;2022-07-29T04:30:43;13.20;99.90
7000;DHT22;3540;53.242;10.408;2022-07-29T04:33:09;13.20;99.90
7000;DHT22;3540;53.242;10.408;2022-07-29T04:35:36;13.20;99.90
7000;DHT22;3540;53.242;10.408;2022-07-29T04:38:03;13.30;99.90
7000;DHT22;3540;53.242;10.408;2022-07-29T04:40:28;13.30;99.90
7000;DHT22;3540;53.242;10.408;2022-07-29T04:42:54;13.40;99.90
7000;DHT22;3540;53.242;10.408;2022-07-29T04:45:20;13.40;99.90
7000;DHT22;3540;53.242;10.408;2022-07-29T04:47:45;13.40;99.90
7000;DHT22;3540;53.242;10.408;2022-07-29T04:50:11;13.50;99.90
7000;DHT22;3540;53.242;10.408;2022-07-29T04:52:37;13.50;99.90
7000;DHT22;3540;53.242;10.408;2022-07-29T04:55:04;13.60;99.90
7000;DHT22;3540;53.242;10.408;2022-07-29T04:57:30;13.50;99.90
7000;DHT22;3540;53.242;10.408;2022-07-29T04:59:55;13.60;99.90
7000;DHT22;3540;53.242;10.408;2022-07-29T05:02:21;13.70;99.90
7000;DHT22;3540;53.242;10.408;2022-07-29T05:04:47;13.80;99.90
7000;DHT22;3540;53.242;10.408;2022-07-29T05:07:13;13.90;99.90
7000;DHT22;3540;53.242;10.408;2022-07-29T05:09:39;13.90;99.90
7000;DHT22;3540;53.242;10.408;2022-07-29T05:12:05;14.00;99.90
7000;DHT22;3540;53.242;10.408;2022-07-29T05:14:31;14.10;99.90
7000;DHT22;3540;53.242;10.408;2022-07-29T05:16:57;14.00;99.90
7000;DHT22;3540;53.242;10.408;2022-07-29T05:19:23;14.10;99.90
7000;DHT22;3540;53.242;10.408;2022-07-29T05:21:48;14.10;99.90
7000;DHT22;3540;53.242;10.408;2022-07-29T05:24:14;14.20;99.90
7000;DHT22;3540;53.242;10.408;2022-07-29T05:26:40;14.20;99.90
7000;DHT22;3540;53.242;10.408;2022-07-29T05:29:05;14.20;99.90
7000;DHT22;3540;53.242;10.408;2022-07-29T05:31:31;14.40;99.90
7000;DHT22;3540;53.242;10.408;2022-07-29T05:33:57;14.30;99.90
7000;DHT22;3540;53.242;10.408;2022-07-29T05:36:22;14.20;99.90
7000;DHT22;3540;53.242;10.408;2022-07-29T05:38:48;14.30;99.90
7000;DHT22;3540;53.242;10.408;2022-07-29T05:41:13;14.30;99.90
7000;DHT22;3540;53.242;10.408;2022-07-29T05:43:39;14.20;99.90
7000;DHT22;3540;53.242;10.408;2022-07-29T05:46:05;14.30;99.90
7000;DHT22;3540;53.242;10.408;2022-07-29T05:48:30;14.40;99.90
7000;DHT22;3540;53.242;10.408;2022-07-29T05:50:56;14.40;99.90
7000;DHT22;3540;53.242;10.408;2022-07-29T05:53:22;14.40;99.90
7000;DHT22;3540;53.242;10.408;2022-07-29T05:55:48;14.50;99.90
7000;DHT22;3540;53.242;10.408;2022-07-29T05:58:14;14.40;99.90
7000;DHT22;3540;53.242;10.408;2022-07-29T06:00:39;14.50;99.90
7000;DHT22;3540;53.242;10.408;2022-07-29T06:03:05;14.50;99.90
7000;DHT22;3540;53.242;10.408;2022-07-29T06:05:31;14.70;99.90
7000;DHT22;3540;53.242;10.408;2022-07-29T06:07:56;14.80;99.90
7000;DHT22;3540;53.242;10.408;2022-07-29T06:10:22;14.90;99.90
7000;DHT22;3540;53.242;10.408;2022-07-29T06:12:48;14.90;99.90
7000;DHT22;3540;53.242;10.408;2022-07-29T06:15:13;14.90;99.90
7000;DHT22;3540;53.242;10.408;2022-07-29T06:17:39;14.90;99.90
7000;DHT22;3540;53.242;10.408;2022-07-29T06:20:05;15.10;99.90
7000;DHT22;3540;53.242;10.408;2022-07-29T06:22:31;14.90;99.90
7000;DHT22;3540;53.242;10.408;2022-07-29T06:24:56;15.00;99.90
7000;DHT22;3540;53.242;10.408;2022-07-29T06:27:22;15.10;99.90
7000;DHT22;3540;53.242;10.408;2022-07-29T06:29:47;15.20;99.90
7000;DHT22;3540;53.242;10.408;2022-07-29T06:32:13;15.20;99.90
7000;DHT22;3540;53.242;10.408;2022-07-29T06:34:39;15.30;99.90
7000;DHT22;3540;53.242;10.408;2022-07-29T06:37:08;15.50;99.90
7000;DHT22;3540;53.242;10.408;2022-07-29T06:39:35;15.60;99.90
7000;DHT22;3540;53.242;10.408;2022-07-29T06:42:02;15.60;99.90
7000;DHT22;3540;53.242;10.408;2022-07-29T06:44:27;15.60;99.90
7000;DHT22;3540;53.242;10.408;2022-07-29T06:46:53;15.70;99.90
7000;DHT22;3540;53.242;10.408;2022-07-29T06:49:20;15.80;99.90
7000;DHT22;3540;53.242;10.408;2022-07-29T06:51:45;15.70;99.90
7000;DHT22;3540;53.242;10.408;2022-07-29T06:54:11;15.70;99.90
7000;DHT22;3540;53.242;10.408;2022-07-29T06:56:37;15.80;99.90
7000;DHT22;3540;53.242;10.408;2022-07-29T06:59:04;15.90;99.90
7000;DHT22;3540;53.242;10.408;2022-07-29T07:01:29;16.10;99.90
7000;DHT22;3540;53.242;10.408;2022-07-29T07:03:55;16.40;99.90
7000;DHT22;3540;53.242;10.408;2022-07-29T07:06:21;16.10;99.90
7000;DHT22;3540;53.242;10.408;2022-07-29T07:08:47;16.30;99.90
7000;DHT22;3540;53.242;10.408;2022-07-29T07:11:13;16.20;99.90
7000;DHT22;3540;53.242;10.408;2022-07-29T07:13:38;16.20;99.90
7000;DHT22;3540;53.242;10.408;2022-07-29T07:16:04;16.20;99.90
7000;DHT22;3540;53.242;10.408;2022-07-29T07:18:30;16.40;99.90
7000;DHT22;3540;53.242;10.408;2022-07-29T07:20:56;16.60;99.90
7000;DHT22;3540;53.242;10.408;2022-07-29T07:23:22;16.80;99.90
7000;DHT22;3540;53.242;10.408;2022-07-29T07:25:48;16.70;99.90
7000;DHT22;3540;53.242;10.408;2022-07-29T07:28:13;16.70;99.90
7000;DHT22;3540;53.242;10.408;2022-07-29T07:30:39;16.70;99.90
7000;DHT22;3540;53.242;10.408;2022-07-29T07:33:05;16.90;99.90
7000;DHT22;3540;53.242;10.408;2022-07-29T07:35:30;17.00;99.90
7000;DHT22;3540;53.242;10.408;2022-07-29T07:37:57;16.90;99.90
7000;DHT22;3540;53.242;10.408;2022-07-29T07:40:24;16.90;99.90
7000;DHT22;3540;53.242;10.408;2022-07-29T07:42:50;17.00;99.90
7000;DHT22;3540;53.242;10.408;2022-07-29T07:45:15;17.10;99.90
7000;DHT22;3540;53.242;10.408;2022-07-29T07:47:41;17.20;99.90
7000;DHT22;3540;53.242;10.408;2022-07-29T07:50:09;17.40;99.90
7000;DHT22;3540;53.242;10.408;2022-07-29T07:52:49;17.40;99.90
7000;DHT22;3540;53.242;10.408;2022-07-29T07:55:16;17.50;99.90
7000;DHT22;3540;53.242;10.408;2022-07-29T07:57:41;17.10;99.90
7000;DHT22;3540;53.242;10.408;2022-07-29T08:00:07;17.20;99.90
7000;DHT22;3540;53.242;10.408;2022-07-29T08:02:33;17.20;99.90
7000;DHT22;3540;53.242;10.408;2022-07-29T08:04:58;17.40;99.90
7000;DHT22;3540;53.242;10.408;2022-07-29T08:07:25;17.60;99.90
7000;DHT22;3540;53.242;10.408;2022-07-29T08:09:50;17.90;99.90
7000;DHT22;3540;53.242;10.408;2022-07-29T08:12:16;17.90;99.90
7000;DHT22;3540;53.242;10.408;2022-07-29T08:14:42;17.90;99.90
7000;DHT22;3540;53.242;10.408;2022-07-29T08:17:07;18.10;99.90
7000;DHT22;3540;53.242;10.408;2022-07-29T08:19:33;18.40;99.90
7000;DHT22;3540;53.242;10.408;2022-07-29T08:21:59;18.60;99.90
7000;DHT22;3540;53.242;10.408;2022-07-29T08:24:24;18.50;99.90
7000;DHT22;3540;53.242;10.408;2022-07-29T08:27:09;18.80;99.90
7000;DHT22;3540;53.242;10.408;2022-07-29T08:29:35;19.10;99.90
7000;DHT22;3540;53.242;10.408;2022-07-29T08:32:01;19.50;99.90
7000;DHT22;3540;53.242;10.408;2022-07-29T08:34:27;19.90;99.90
7000;DHT22;3540;53.242;10.408;2022-07-29T08:36:54;19.90;99.90
7000;DHT22;3540;53.242;10.408;2022-07-29T08:39:20;20.10;99.90
7000;DHT22;3540;53.242;10.408;2022-07-29T08:41:46;19.90;99.90
7000;DHT22;3540;53.242;10.408;2022-07-29T08:44:13;19.50;99.90
7000;DHT22;3540;53.242;10.408;2022-07-29T08:46:40;19.50;99.90
7000;DHT22;3540;53.242;10.408;2022-07-29T08:49:06;20.10;99.90
7000;DHT22;3540;53.242;10.408;2022-07-29T08:51:33;20.70;99.90
7000;DHT22;3540;53.242;10.408;2022-07-29T08:54:00;20.80;99.90
7000;DHT22;3540;53.242;10.408;2022-07-29T08:56:27;20.80;99.90
7000;DHT22;3540;53.242;10.408;2022-07-29T08:58:52;21.20;99.90
7000;DHT22;3540;53.242;10.408;2022-07-29T09:01:24;21.10;1.00
7000;DHT22;3540;53.242;10.408;2022-07-29T09:03:55;21.50;99.90
7000;DHT22;3540;53.242;10.408;2022-07-29T09:06:21;21.30;1.00
7000;DHT22;3540;53.242;10.408;2022-07-29T09:08:48;21.00;99.90
7000;DHT22;3540;53.242;10.408;2022-07-29T09:11:14;21.20;99.90
7000;DHT22;3540;53.242;10.408;2022-07-29T09:13:40;21.70;1.00
7000;DHT22;3540;53.242;10.408;2022-07-29T09:16:06;22.00;1.00
7000;DHT22;3540;53.242;10.408;2022-07-29T09:18:39;21.70;99.90
7000;DHT22;3540;53.242;10.408;2022-07-29T09:21:07;21.40;99.90
7000;DHT22;3540;53.242;10.408;2022-07-29T09:24:13;21.80;1.00
7000;DHT22;3540;53.242;10.408;2022-07-29T09:26:40;21.90;99.90
7000;DHT22;3540;53.242;10.408;2022-07-29T09:29:23;22.00;99.90
7000;DHT22;3540;53.242;10.408;2022-07-29T09:31:51;22.10;99.90
7000;DHT22;3540;53.242;10.408;2022-07-29T09:34:24;22.20;99.90
7000;DHT22;3540;53.242;10.408;2022-07-29T09:36:51;21.80;99.90
7000;DHT22;3540;53.242;10.408;2022-07-29T09:39:28;22.00;99.90
7000;DHT22;3540;53.242;10.408;2022-07-29T09:41:56;22.40;99.90
7000;DHT22;3540;53.242;10.408;2022-07-29T09:44:23;22.00;99.90
7000;DHT22;3540;53.242;10.408;2022-07-29T09:47:03;22.50;99.90
7000;DHT22;3540;53.242;10.408;2022-07-29T09:49:49;22.90;99.90
7000;DHT22;3540;53.242;10.408;2022-07-29T09:52:15;22.50;99.90
7000;DHT22;3540;53.242;10.408;2022-07-29T09:54:40;22.80;99.90
7000;DHT22;3540;53.242;10.408;2022-07-29T09:57:08;23.30;99.90
7000;DHT22;3540;53.242;10.408;2022-07-29T09:59:38;23.80;99.90
7000;DHT22;3540;53.242;10.408;2022-07-29T10:02:12;23.40;99.90
7000;DHT22;3540;53.242;10.408;2022-07-29T10:04:42;22.90;99.90
7000;DHT22;3540;53.242;10.408;2022-07-29T10:07:08;23.10;99.90
7000;DHT22;3540;53.242;10.408;2022-07-29T10:09:35;23.00;99.90
7000;DHT22;3540;53.242;10.408;2022-07-29T10:14:31;23.10;99.90
7000;DHT22;3540;53.242;10.408;2022-07-29T10:16:59;22.90;99.90
7000;DHT22;3540;53.242;10.408;2022-07-29T10:19:30;22.80;99.90
7000;DHT22;3540;53.242;10.408;2022-07-29T10:21:57;22.90;99.90
7000;DHT22;3540;53.242;10.408;2022-07-29T10:24:25;22.90;99.90
7000;DHT22;3540;53.242;10.408;2022-07-29T10:26:56;22.70;99.90
7000;DHT22;3540;53.242;10.408;2022-07-29T10:29:22;22.60;99.90
7000;DHT22;3540;53.242;10.408;2022-07-29T10:32:10;22.60;99.90
7000;DHT22;3540;53.242;10.408;2022-07-29T10:42:25;23.10;99.90
7000;DHT22;3540;53.242;10.408;2022-07-29T10:44:53;23.60;99.90
7000;DHT22;3540;53.242;10.408;2022-07-29T10:47:23;23.80;99.90
7000;DHT22;3540;53.242;10.408;2022-07-29T10:50:03;23.60;99.90
7000;DHT22;3540;53.242;10.408;2022-07-29T10:58:30;23.60;99.90
7000;DHT22;3540;53.242;10.408;2022-07-29T11:00:56;23.90;99.90
7000;DHT22;3540;53.242;10.408;2022-07-29T11:06:07;24.20;99.90
7000;DHT22;3540;53.242;10.408;2022-07-29T11:08:33;23.90;99.90
7000;DHT22;3540;53.242;10.408;2022-07-29T11:13:53;24.00;99.90
7000;DHT22;3540;53.242;10.408;2022-07-29T11:16:21;23.90;99.90
7000;DHT22;3540;53.242;10.408;2022-07-29T11:21:43;24.40;99.90
7000;DHT22;3540;53.242;10.408;2022-07-29T11:24:19;24.20;99.90
7000;DHT22;3540;53.242;10.408;2022-07-29T11:29:57;24.50;99.90
7000;DHT22;3540;53.242;10.408;2022-07-29T11:32:36;24.30;99.90
7000;DHT22;3540;53.242;10.408;2022-07-29T11:35:28;24.00;99.90
7000;DHT22;3540;53.242;10.408;2022-07-29T11:41:19;24.60;99.90
7000;DHT22;3540;53.242;10.408;2022-07-29T11:44:01;24.40;99.90
7000;DHT22;3540;53.242;10.408;2022-07-29T11:46:46;24.20;99.90
7000;DHT22;3540;53.242;10.408;2022-07-29T11:49:22;24.50;99.90
7000;DHT22;3540;53.242;10.408;2022-07-29T11:51:52;24.50;99.90
7000;DHT22;3540;53.242;10.408;2022-07-29T11:54:24;24.60;99.90
7000;DHT22;3540;53.242;10.408;2022-07-29T11:56:52;24.70;99.90
7000;DHT22;3540;53.242;10.408;2022-07-29T11:59:19;24.40;99.90
7000;DHT22;3540;53.242;10.408;2022-07-29T12:01:56;24.60;99.90
7000;DHT22;3540;53.242;10.408;2022-07-29T12:04:23;25.20;99.90
7000;DHT22;3540;53.242;10.408;2022-07-29T12:06:58;25.10;99.90
7000;DHT22;3540;53.242;10.408;2022-07-29T12:09:24;24.90;99.90
7000;DHT22;3540;53.242;10.408;2022-07-29T12:11:56;25.20;99.90
7000;DHT22;3540;53.242;10.408;2022-07-29T12:14:33;25.70;99.90
7000;DHT22;3540;53.242;10.408;2022-07-29T12:16:59;25.70;99.90
7000;DHT22;3540;53.242;10.408;2022-07-29T12:19:26;25.50;99.90
7000;DHT22;3540;53.242;10.408;2022-07-29T12:21:55;25.70;99.90
7000;DHT22;3540;53.242;10.408;2022-07-29T12:24:21;25.90;99.90
7000;DHT22;3540;53.242;10.408;2022-07-29T12:26:51;25.80;99.90
7000;DHT22;3540;53.242;10.408;2022-07-29T12:29:17;26.20;99.90
7000;DHT22;3540;53.242;10.408;2022-07-29T12:31:44;26.00;99.90
7000;DHT22;3540;53.242;10.408;2022-07-29T12:34:15;26.40;99.90
7000;DHT22;3540;53.242;10.408;2022-07-29T12:36:42;26.70;99.90
7000;DHT22;3540;53.242;10.408;2022-07-29T12:39:08;26.40;99.90
7000;DHT22;3540;53.242;10.408;2022-07-29T12:41:35;26.60;99.90
7000;DHT22;3540;53.242;10.408;2022-07-29T12:44:01;27.20;99.90
7000;DHT22;3540;53.242;10.408;2022-07-29T12:46:26;25.60;99.90
7000;DHT22;3540;53.242;10.408;2022-07-29T12:48:54;25.20;99.90
7000;DHT22;3540;53.242;10.408;2022-07-29T12:51:36;25.70;99.90
7000;DHT22;3540;53.242;10.408;2022-07-29T12:56:32;26.40;99.90
7000;DHT22;3540;53.242;10.408;2022-07-29T12:58:58;26.40;99.90
7000;DHT22;3540;53.242;10.408;2022-07-29T13:01:24;27.20;99.90
7000;DHT22;3540;53.242;10.408;2022-07-29T13:03:56;28.00;99.90
7000;DHT22;3540;53.242;10.408;2022-07-29T13:11:31;26.30;99.90
7000;DHT22;3540;53.242;10.408;2022-07-29T13:13:57;26.30;99.90
7000;DHT22;3540;53.242;10.408;2022-07-29T13:16:23;26.30;99.90
7000;DHT22;3540;53.242;10.408;2022-07-29T13:19:03;26.50;99.90
7000;DHT22;3540;53.242;10.408;2022-07-29T13:21:29;27.00;99.90
7000;DHT22;3540;53.242;10.408;2022-07-29T13:23:55;27.60;99.90
7000;DHT22;3540;53.242;10.408;2022-07-29T13:26:20;27.50;99.90
7000;DHT22;3540;53.242;10.408;2022-07-29T13:28:46;27.80;99.90
7000;DHT22;3540;53.242;10.408;2022-07-29T13:31:12;27.80;99.90
7000;DHT22;3540;53.242;10.408;2022-07-29T13:33:37;28.30;1.00
7000;DHT22;3540;53.242;10.408;2022-07-29T13:36:03;27.50;99.90
7000;DHT22;3540;53.242;10.408;2022-07-29T13:38:29;26.90;99.90
7000;DHT22;3540;53.242;10.408;2022-07-29T13:40:54;26.70;99.90
7000;DHT22;3540;53.242;10.408;2022-07-29T13:43:20;27.20;1.00
7000;DHT22;3540;53.242;10.408;2022-07-29T13:45:45;27.30;99.90
7000;DHT22;3540;53.242;10.408;2022-07-29T13:48:11;27.90;99.90
7000;DHT22;3540;53.242;10.408;2022-07-29T13:50:37;28.30;99.90
7000;DHT22;3540;53.242;10.408;2022-07-29T13:53:02;28.20;99.90
7000;DHT22;3540;53.242;10.408;2022-07-29T13:55:29;28.40;99.90
7000;DHT22;3540;53.242;10.408;2022-07-29T13:57:55;28.60;99.90
7000;DHT22;3540;53.242;10.408;2022-07-29T14:00:20;28.10;99.90
7000;DHT22;3540;53.242;10.408;2022-07-29T14:02:46;27.60;99.90
7000;DHT22;3540;53.242;10.408;2022-07-29T14:05:12;27.50;99.90
7000;DHT22;3540;53.242;10.408;2022-07-29T14:07:38;27.70;99.90
7000;DHT22;3540;53.242;10.408;2022-07-29T14:10:05;27.10;99.90
7000;DHT22;3540;53.242;10.408;2022-07-29T14:12:31;27.10;99.90
7000;DHT22;3540;53.242;10.408;2022-07-29T14:14:56;27.40;99.90
7000;DHT22;3540;53.242;10.408;2022-07-29T14:17:22;28.20;99.90
7000;DHT22;3540;53.242;10.408;2022-07-29T14:19:48;27.80;99.90
7000;DHT22;3540;53.242;10.408;2022-07-29T14:22:14;28.10;99.90
7000;DHT22;3540;53.242;10.408;2022-07-29T14:24:40;28.50;99.90
7000;DHT22;3540;53.242;10.408;2022-07-29T14:27:07;28.90;99.90
7000;DHT22;3540;53.242;10.408;2022-07-29T14:29:33;29.10;99.90
7000;DHT22;3540;53.242;10.408;2022-07-29T14:31:59;29.00;99.90
7000;DHT22;3540;53.242;10.408;2022-07-29T14:34:25;29.10;99.90
7000;DHT22;3540;53.242;10.408;2022-07-29T14:36:51;29.20;99.90
7000;DHT22;3540;53.242;10.408;2022-07-29T14:39:16;29.40;99.90
7000;DHT22;3540;53.242;10.408;2022-07-29T14:41:43;29.90;99.90
7000;DHT22;3540;53.242;10.408;2022-07-29T14:44:08;29.80;99.90
7000;DHT22;3540;53.242;10.408;2022-07-29T14:46:34;30.10;99.90
7000;DHT22;3540;53.242;10.408;2022-07-29T14:49:00;30.10;99.90
7000;DHT22;3540;53.242;10.408;2022-07-29T14:51:25;30.70;99.90
7000;DHT22;3540;53.242;10.408;2022-07-29T14:53:51;30.40;99.90
7000;DHT22;3540;53.242;10.408;2022-07-29T14:56:17;30.30;99.90
7000;DHT22;3540;53.242;10.408;2022-07-29T14:58:43;30.30;99.90
7000;DHT22;3540;53.242;10.408;2022-07-29T15:01:08;29.80;99.90
7000;DHT22;3540;53.242;10.408;2022-07-29T15:03:34;28.90;99.90
7000;DHT22;3540;53.242;10.408;2022-07-29T15:06:00;28.80;99.90
7000;DHT22;3540;53.242;10.408;2022-07-29T15:08:25;29.00;99.90
7000;DHT22;3540;53.242;10.408;2022-07-29T15:10:53;28.60;99.90
7000;DHT22;3540;53.242;10.408;2022-07-29T15:13:19;28.50;99.90
7000;DHT22;3540;53.242;10.408;2022-07-29T15:15:44;28.10;99.90
7000;DHT22;3540;53.242;10.408;2022-07-29T15:18:10;27.70;99.90
7000;DHT22;3540;53.242;10.408;2022-07-29T15:20:36;27.40;99.90
7000;DHT22;3540;53.242;10.408;2022-07-29T15:23:02;27.50;99.90
7000;DHT22;3540;53.242;10.408;2022-07-29T15:25:27;27.50;99.90
7000;DHT22;3540;53.242;10.408;2022-07-29T15:27:53;27.40;99.90
7000;DHT22;3540;53.242;10.408;2022-07-29T15:30:19;27.30;99.90
7000;DHT22;3540;53.242;10.408;2022-07-29T15:32:44;27.40;99.90
7000;DHT22;3540;53.242;10.408;2022-07-29T15:35:10;27.80;99.90
7000;DHT22;3540;53.242;10.408;2022-07-29T15:37:39;28.20;99.90
7000;DHT22;3540;53.242;10.408;2022-07-29T15:40:05;28.10;99.90
7000;DHT22;3540;53.242;10.408;2022-07-29T15:42:31;28.30;99.90
7000;DHT22;3540;53.242;10.408;2022-07-29T15:44:57;28.80;99.90
7000;DHT22;3540;53.242;10.408;2022-07-29T15:47:23;27.90;99.90
7000;DHT22;3540;53.242;10.408;2022-07-29T15:49:49;28.10;99.90
7000;DHT22;3540;53.242;10.408;2022-07-29T15:52:16;28.20;99.90
7000;DHT22;3540;53.242;10.408;2022-07-29T15:54:43;29.00;99.90
7000;DHT22;3540;53.242;10.408;2022-07-29T15:57:09;29.80;99.90
7000;DHT22;3540;53.242;10.408;2022-07-29T15:59:35;30.50;99.90
7000;DHT22;3540;53.242;10.408;2022-07-29T16:02:01;31.20;99.90
7000;DHT22;3540;53.242;10.408;2022-07-29T16:04:27;31.30;99.90
7000;DHT22;3540;53.242;10.408;2022-07-29T16:06:52;30.50;99.90
7000;DHT22;3540;53.242;10.408;2022-07-29T16:09:18;30.30;99.90
7000;DHT22;3540;53.242;10.408;2022-07-29T16:11:45;28.80;99.90
7000;DHT22;3540;53.242;10.408;2022-07-29T16:14:11;27.80;99.90
7000;DHT22;3540;53.242;10.408;2022-07-29T16:16:37;27.50;99.90
7000;DHT22;3540;53.242;10.408;2022-07-29T16:19:04;28.10;99.90
7000;DHT22;3540;53.242;10.408;2022-07-29T16:21:30;28.30;99.90
7000;DHT22;3540;53.242;10.408;2022-07-29T16:23:56;28.00;99.90
7000;DHT22;3540;53.242;10.408;2022-07-29T16:26:23;28.00;99.90
7000;DHT22;3540;53.242;10.408;2022-07-29T16:28:48;28.00;99.90
7000;DHT22;3540;53.242;10.408;2022-07-29T16:31:14;28.70;99.90
7000;DHT22;3540;53.242;10.408;2022-07-29T16:33:40;28.70;99.90
7000;DHT22;3540;53.242;10.408;2022-07-29T16:36:06;28.70;99.90
7000;DHT22;3540;53.242;10.408;2022-07-29T16:38:31;30.10;99.90
7000;DHT22;3540;53.242;10.408;2022-07-29T16:40:57;30.20;99.90
7000;DHT22;3540;53.242;10.408;2022-07-29T16:43:22;29.50;99.90
7000;DHT22;3540;53.242;10.408;2022-07-29T16:45:48;29.40;99.90